createdAt,value
2018-06-21T00:00:06.183Z,19.50
2018-06-21T00:01:08.480Z,19.50
2018-06-21T00:02:08.675Z,19.40
2018-06-21T00:03:10.150Z,19.40
2018-06-21T00:04:06.100Z,19.40
2018-06-21T00:05:05.993Z,19.30
2018-06-21T00:06:05.498Z,19.40
2018-06-21T00:07:06.080Z,19.30
2018-06-21T00:08:06.102Z,19.30
2018-06-21T00:09:08.285Z,19.20
2018-06-21T00:10:05.752Z,19.20
2018-06-21T00:11:05.576Z,19.20
2018-06-21T00:12:16.601Z,19.10
2018-06-21T00:13:06.442Z,19.10
2018-06-21T00:14:08.659Z,19.10
2018-06-21T00:15:05.123Z,19.10
2018-06-21T00:16:08.480Z,19.10
2018-06-21T00:17:05.734Z,19.10
2018-06-21T00:18:05.940Z,19.10
2018-06-21T00:19:06.119Z,19.10
2018-06-21T00:20:05.830Z,19.10
2018-06-21T00:21:05.541Z,19.00
2018-06-21T00:22:05.544Z,19.10
2018-06-21T00:23:05.675Z,19.00
2018-06-21T00:24:05.273Z,19.00
2018-06-21T00:25:06.040Z,18.90
2018-06-21T00:26:08.680Z,18.80
2018-06-21T00:27:06.824Z,18.80
2018-06-21T00:28:05.542Z,18.80
2018-06-21T00:29:06.452Z,18.80
2018-06-21T00:30:11.072Z,18.70
2018-06-21T00:31:05.290Z,18.70
2018-06-21T00:32:05.962Z,18.70
2018-06-21T00:33:05.689Z,18.70
2018-06-21T00:34:08.287Z,18.70
2018-06-21T00:35:05.931Z,18.60
2018-06-21T00:36:08.113Z,18.60
2018-06-21T00:37:08.292Z,18.60
2018-06-21T00:38:05.852Z,18.60
2018-06-21T00:39:05.388Z,18.60
2018-06-21T00:40:05.395Z,18.50
2018-06-21T00:41:06.351Z,18.50
2018-06-21T00:42:05.935Z,18.50
2018-06-21T00:43:08.369Z,18.50
2018-06-21T00:44:05.989Z,18.50
2018-06-21T00:45:06.085Z,18.50
2018-06-21T00:46:10.915Z,18.40
2018-06-21T00:47:05.458Z,18.50
2018-06-21T00:48:08.275Z,18.40
2018-06-21T00:49:05.987Z,18.40
2018-06-21T00:50:05.648Z,18.40
2018-06-21T00:51:05.783Z,18.40
2018-06-21T00:52:08.116Z,18.40
2018-06-21T00:53:05.645Z,18.40
2018-06-21T00:54:14.303Z,18.40
2018-06-21T00:55:08.436Z,18.40
2018-06-21T00:56:05.940Z,18.40
2018-06-21T00:57:05.684Z,18.40
2018-06-21T00:58:05.341Z,18.40
2018-06-21T00:59:06.033Z,18.40
2018-06-21T01:00:05.854Z,18.40
2018-06-21T01:01:05.965Z,18.40
2018-06-21T01:02:08.679Z,18.40
2018-06-21T01:03:06.010Z,18.30
2018-06-21T01:04:10.669Z,18.30
2018-06-21T01:05:07.912Z,18.30
2018-06-21T01:06:05.506Z,18.30
2018-06-21T01:07:05.545Z,18.30
2018-06-21T01:08:05.767Z,18.30
2018-06-21T01:09:05.453Z,18.20
2018-06-21T01:10:05.782Z,18.20
2018-06-21T01:11:05.894Z,18.20
2018-06-21T01:12:05.484Z,18.20
2018-06-21T01:13:08.023Z,18.10
2018-06-21T01:14:05.999Z,18.10
2018-06-21T01:15:05.404Z,18.10
2018-06-21T01:16:05.455Z,18.10
2018-06-21T01:17:05.447Z,18.00
2018-06-21T01:18:10.249Z,18.00
2018-06-21T01:19:10.746Z,18.00
2018-06-21T01:20:05.630Z,18.00
2018-06-21T01:21:05.436Z,18.00
2018-06-21T01:22:05.967Z,18.00
2018-06-21T01:23:08.050Z,18.00
2018-06-21T01:24:06.047Z,18.00
2018-06-21T01:25:05.147Z,18.00
2018-06-21T01:26:06.282Z,18.00
2018-06-21T01:27:05.905Z,18.00
2018-06-21T01:28:05.473Z,18.00
2018-06-21T01:29:06.105Z,18.00
2018-06-21T01:30:05.921Z,17.90
2018-06-21T01:31:06.057Z,17.90
2018-06-21T01:32:08.114Z,17.90
2018-06-21T01:33:06.623Z,17.90
2018-06-21T01:34:05.172Z,17.90
2018-06-21T01:35:05.947Z,17.90
2018-06-21T01:36:05.521Z,17.90
2018-06-21T01:37:05.780Z,17.90
2018-06-21T01:38:05.492Z,17.90
2018-06-21T01:39:05.378Z,17.90
2018-06-21T01:40:06.022Z,17.90
2018-06-21T01:41:06.174Z,17.90
2018-06-21T01:42:05.826Z,17.90
2018-06-21T01:43:07.884Z,17.80
2018-06-21T01:44:07.911Z,17.80
2018-06-21T01:45:08.010Z,17.80
2018-06-21T01:46:05.606Z,17.80
2018-06-21T01:47:07.789Z,17.80
2018-06-21T01:48:10.421Z,17.80
2018-06-21T01:49:05.801Z,17.70
2018-06-21T01:50:08.316Z,17.70
2018-06-21T01:51:08.007Z,17.70
2018-06-21T01:52:08.572Z,17.70
2018-06-21T01:53:06.121Z,17.70
2018-06-21T01:54:05.832Z,17.70
2018-06-21T01:55:10.308Z,17.60
2018-06-21T01:56:10.859Z,17.60
2018-06-21T01:57:05.827Z,17.50
2018-06-21T01:58:10.668Z,17.50
2018-06-21T01:59:07.839Z,17.50
2018-06-21T02:00:05.382Z,17.50
2018-06-21T02:01:10.401Z,17.40
2018-06-21T02:02:06.280Z,17.40
2018-06-21T02:03:05.875Z,17.40
2018-06-21T02:04:05.591Z,17.30
2018-06-21T02:05:10.687Z,17.30
2018-06-21T02:06:05.311Z,17.30
2018-06-21T02:07:06.062Z,17.30
2018-06-21T02:08:06.109Z,17.30
2018-06-21T02:09:10.415Z,17.30
2018-06-21T02:10:06.098Z,17.30
2018-06-21T02:11:06.266Z,17.30
2018-06-21T02:12:06.507Z,17.30
2018-06-21T02:13:06.489Z,17.30
2018-06-21T02:14:06.060Z,17.20
2018-06-21T02:15:05.821Z,17.30
2018-06-21T02:16:08.126Z,17.30
2018-06-21T02:17:10.710Z,17.20
2018-06-21T02:18:05.235Z,17.20
2018-06-21T02:19:05.113Z,17.20
2018-06-21T02:20:12.059Z,17.20
2018-06-21T02:21:05.550Z,17.20
2018-06-21T02:22:08.136Z,17.20
2018-06-21T02:23:05.664Z,17.20
2018-06-21T02:24:05.781Z,17.10
2018-06-21T02:25:10.593Z,17.10
2018-06-21T02:26:06.254Z,17.10
2018-06-21T02:27:05.240Z,17.10
2018-06-21T02:28:07.835Z,17.00
2018-06-21T02:29:05.306Z,17.00
2018-06-21T02:30:05.314Z,17.00
2018-06-21T02:31:05.335Z,17.00
2018-06-21T02:32:16.031Z,17.00
2018-06-21T02:33:05.760Z,17.00
2018-06-21T02:34:05.897Z,17.00
2018-06-21T02:35:06.013Z,17.00
2018-06-21T02:36:06.128Z,17.00
2018-06-21T02:37:05.429Z,17.10
2018-06-21T02:38:05.467Z,17.00
2018-06-21T02:39:07.732Z,17.00
2018-06-21T02:40:05.750Z,17.00
2018-06-21T02:41:08.171Z,16.90
2018-06-21T02:42:08.199Z,16.90
2018-06-21T02:43:08.198Z,16.90
2018-06-21T02:44:06.192Z,16.90
2018-06-21T02:45:06.023Z,17.00
2018-06-21T02:46:05.754Z,16.90
2018-06-21T02:47:08.130Z,16.90
2018-06-21T02:48:06.001Z,16.90
2018-06-21T02:49:13.188Z,16.90
2018-06-21T02:50:05.768Z,16.90
2018-06-21T02:51:10.510Z,16.90
2018-06-21T02:52:06.113Z,16.90
2018-06-21T02:53:06.106Z,16.90
2018-06-21T02:54:06.137Z,16.90
2018-06-21T02:55:05.887Z,16.80
2018-06-21T02:56:08.562Z,16.80
2018-06-21T02:57:11.058Z,16.80
2018-06-21T02:58:08.249Z,16.80
2018-06-21T02:59:05.684Z,16.80
2018-06-21T03:00:08.189Z,16.80
2018-06-21T03:01:05.840Z,16.90
2018-06-21T03:02:06.030Z,16.80
2018-06-21T03:03:10.824Z,16.90
2018-06-21T03:04:08.073Z,16.80
2018-06-21T03:05:08.510Z,16.80
2018-06-21T03:06:06.149Z,16.80
2018-06-21T03:07:07.885Z,16.80
2018-06-21T03:08:05.230Z,16.70
2018-06-21T03:09:11.438Z,16.80
2018-06-21T03:10:06.479Z,16.80
2018-06-21T03:11:06.226Z,16.80
2018-06-21T03:12:10.966Z,16.70
2018-06-21T03:13:05.995Z,16.70
2018-06-21T03:14:06.199Z,16.70
2018-06-21T03:15:07.705Z,16.70
2018-06-21T03:16:11.095Z,16.60
2018-06-21T03:17:11.120Z,16.60
2018-06-21T03:18:08.205Z,16.60
2018-06-21T03:19:08.296Z,16.70
2018-06-21T03:20:05.779Z,16.60
2018-06-21T03:21:05.446Z,16.70
2018-06-21T03:22:06.119Z,16.70
2018-06-21T03:23:11.841Z,16.70
2018-06-21T03:24:05.267Z,16.70
2018-06-21T03:25:06.213Z,16.70
2018-06-21T03:26:10.852Z,16.70
2018-06-21T03:27:05.535Z,16.70
2018-06-21T03:28:05.592Z,16.60
2018-06-21T03:29:05.363Z,16.70
2018-06-21T03:30:05.476Z,16.70
2018-06-21T03:31:05.365Z,16.70
2018-06-21T03:32:06.267Z,16.70
2018-06-21T03:33:08.689Z,16.70
2018-06-21T03:34:08.118Z,16.70
2018-06-21T03:35:08.304Z,16.80
2018-06-21T03:36:08.548Z,16.70
2018-06-21T03:37:05.168Z,16.70
2018-06-21T03:38:10.411Z,16.70
2018-06-21T03:39:05.960Z,16.70
2018-06-21T03:40:10.730Z,16.80
2018-06-21T03:41:05.802Z,16.90
2018-06-21T03:42:10.464Z,16.90
2018-06-21T03:43:11.051Z,17.00
2018-06-21T03:44:05.523Z,17.10
2018-06-21T03:45:07.705Z,17.40
2018-06-21T03:46:05.565Z,17.40
2018-06-21T03:47:07.792Z,17.60
2018-06-21T03:48:10.289Z,17.70
2018-06-21T03:49:06.011Z,17.70
2018-06-21T03:50:05.816Z,17.80
2018-06-21T03:51:10.436Z,18.00
2018-06-21T03:52:08.478Z,18.20
2018-06-21T03:53:11.144Z,18.20
2018-06-21T03:54:06.256Z,18.20
2018-06-21T03:55:05.876Z,18.40
2018-06-21T03:56:05.801Z,18.50
2018-06-21T03:57:05.980Z,18.60
2018-06-21T03:58:05.932Z,18.80
2018-06-21T03:59:08.087Z,19.00
2018-06-21T04:00:05.507Z,19.00
2018-06-21T04:01:08.767Z,19.30
2018-06-21T04:02:05.331Z,19.30
2018-06-21T04:03:06.095Z,19.40
2018-06-21T04:04:08.455Z,19.70
2018-06-21T04:05:11.415Z,19.70
2018-06-21T04:06:08.346Z,20.00
2018-06-21T04:07:10.949Z,20.20
2018-06-21T04:08:08.716Z,20.30
2018-06-21T04:09:07.763Z,20.50
2018-06-21T04:10:10.394Z,20.60
2018-06-21T04:11:06.439Z,20.60
2018-06-21T04:12:06.327Z,20.80
2018-06-21T04:13:06.467Z,20.90
2018-06-21T04:14:06.064Z,21.00
2018-06-21T04:15:06.471Z,21.10
2018-06-21T04:16:06.114Z,21.20
2018-06-21T04:17:05.329Z,21.40
2018-06-21T04:18:05.290Z,21.50
2018-06-21T04:19:06.092Z,21.60
2018-06-21T04:20:05.398Z,21.80
2018-06-21T04:21:05.295Z,21.90
2018-06-21T04:22:07.783Z,22.10
2018-06-21T04:23:05.592Z,22.10
2018-06-21T04:24:07.738Z,22.40
2018-06-21T04:25:08.446Z,22.50
2018-06-21T04:26:08.598Z,22.60
2018-06-21T04:27:06.209Z,22.60
2018-06-21T04:28:06.355Z,22.70
2018-06-21T04:29:05.454Z,22.80
2018-06-21T04:30:08.687Z,23.00
2018-06-21T04:31:10.264Z,23.00
2018-06-21T04:32:08.320Z,23.30
2018-06-21T04:33:08.275Z,23.40
2018-06-21T04:34:13.556Z,23.50
2018-06-21T04:35:06.014Z,23.40
2018-06-21T04:36:06.175Z,23.60
2018-06-21T04:37:10.888Z,23.70
2018-06-21T04:38:05.684Z,23.80
2018-06-21T04:39:08.207Z,24.00
2018-06-21T04:40:05.600Z,24.00
2018-06-21T04:41:05.693Z,24.10
2018-06-21T04:42:08.271Z,24.40
2018-06-21T04:43:10.823Z,24.40
2018-06-21T04:44:05.356Z,24.40
2018-06-21T04:45:07.881Z,24.60
2018-06-21T04:46:10.682Z,24.70
2018-06-21T04:47:05.269Z,24.70
2018-06-21T04:48:06.313Z,24.80
2018-06-21T04:49:05.682Z,24.90
2018-06-21T04:50:05.513Z,24.90
2018-06-21T04:51:07.767Z,25.10
2018-06-21T04:52:05.739Z,25.10
2018-06-21T04:53:10.485Z,25.20
2018-06-21T04:54:06.057Z,25.20
2018-06-21T04:55:08.199Z,25.30
2018-06-21T04:56:06.178Z,25.40
2018-06-21T04:57:05.803Z,25.50
2018-06-21T04:58:05.817Z,25.50
2018-06-21T04:59:10.322Z,25.60
2018-06-21T05:00:08.422Z,25.70
2018-06-21T05:01:06.072Z,25.70
2018-06-21T05:02:06.043Z,25.80
2018-06-21T05:03:08.606Z,25.90
2018-06-21T05:04:08.685Z,26.00
2018-06-21T05:05:08.590Z,26.00
2018-06-21T05:06:05.250Z,26.00
2018-06-21T05:07:06.304Z,26.10
2018-06-21T05:08:05.961Z,26.20
2018-06-21T05:09:05.586Z,26.20
2018-06-21T05:10:05.818Z,26.30
2018-06-21T05:11:05.744Z,26.40
2018-06-21T05:12:07.964Z,26.40
2018-06-21T05:13:05.423Z,26.40
2018-06-21T05:14:08.737Z,26.40
2018-06-21T05:15:05.356Z,26.50
2018-06-21T05:16:07.941Z,26.50
2018-06-21T05:17:08.180Z,26.60
2018-06-21T05:18:05.868Z,26.60
2018-06-21T05:19:05.446Z,26.60
2018-06-21T05:20:11.270Z,26.70
2018-06-21T05:21:05.898Z,26.70
2018-06-21T05:22:11.725Z,26.80
2018-06-21T05:23:05.983Z,26.80
2018-06-21T05:24:13.358Z,26.80
2018-06-21T05:25:08.645Z,26.80
2018-06-21T05:26:06.421Z,26.80
2018-06-21T05:27:06.131Z,26.70
2018-06-21T05:28:05.753Z,26.60
2018-06-21T05:29:05.400Z,26.60
2018-06-21T05:30:06.052Z,26.50
2018-06-21T05:31:05.129Z,26.50
2018-06-21T05:32:05.548Z,26.50
2018-06-21T05:33:05.657Z,26.60
2018-06-21T05:34:07.920Z,26.60
2018-06-21T05:35:05.382Z,26.70
2018-06-21T05:36:06.167Z,26.70
2018-06-21T05:37:05.719Z,26.80
2018-06-21T05:38:05.723Z,26.80
2018-06-21T05:39:08.093Z,27.00
2018-06-21T05:40:06.041Z,27.00
2018-06-21T05:41:05.772Z,27.10
2018-06-21T05:42:07.917Z,27.20
2018-06-21T05:43:05.447Z,27.20
2018-06-21T05:44:13.086Z,27.40
2018-06-21T05:45:05.557Z,27.40
2018-06-21T05:46:05.599Z,27.40
2018-06-21T05:47:05.354Z,27.50
2018-06-21T05:48:06.102Z,27.60
2018-06-21T05:49:07.842Z,27.60
2018-06-21T05:50:06.180Z,27.70
2018-06-21T05:51:05.421Z,27.70
2018-06-21T05:52:05.449Z,27.70
2018-06-21T05:53:05.511Z,27.80
2018-06-21T05:54:05.529Z,27.80
2018-06-21T05:55:05.465Z,27.90
2018-06-21T05:56:05.276Z,27.90
2018-06-21T05:57:06.030Z,27.90
2018-06-21T05:58:06.104Z,27.90
2018-06-21T05:59:06.006Z,28.00
2018-06-21T06:00:05.898Z,28.10
2018-06-21T06:01:05.430Z,28.10
2018-06-21T06:02:10.460Z,28.20
2018-06-21T06:03:05.856Z,28.20
2018-06-21T06:04:10.886Z,28.30
2018-06-21T06:05:10.491Z,28.30
2018-06-21T06:06:05.233Z,28.30
2018-06-21T06:07:05.894Z,28.40
2018-06-21T06:08:08.043Z,28.50
2018-06-21T06:09:05.213Z,28.40
2018-06-21T06:10:11.020Z,28.50
2018-06-21T06:11:08.407Z,28.70
2018-06-21T06:12:06.316Z,28.70
2018-06-21T06:13:06.127Z,28.80
2018-06-21T06:14:08.475Z,28.80
2018-06-21T06:15:07.686Z,28.90
2018-06-21T06:16:07.677Z,28.90
2018-06-21T06:17:05.259Z,28.90
2018-06-21T06:18:10.709Z,29.10
2018-06-21T06:19:07.892Z,29.10
2018-06-21T06:20:05.471Z,29.10
2018-06-21T06:21:07.907Z,29.20
2018-06-21T06:22:07.917Z,29.20
2018-06-21T06:23:10.523Z,29.20
2018-06-21T06:24:08.553Z,29.20
2018-06-21T06:25:08.658Z,29.20
2018-06-21T06:26:07.804Z,29.20
2018-06-21T06:27:05.304Z,29.20
2018-06-21T06:28:10.411Z,29.30
2018-06-21T06:29:10.976Z,29.40
2018-06-21T06:30:05.378Z,29.40
2018-06-21T06:31:05.570Z,29.40
2018-06-21T06:32:05.368Z,29.40
2018-06-21T06:33:07.783Z,29.50
2018-06-21T06:34:05.693Z,29.50
2018-06-21T06:35:05.882Z,29.50
2018-06-21T06:36:05.502Z,29.60
2018-06-21T06:37:05.275Z,29.60
2018-06-21T06:38:06.018Z,29.70
2018-06-21T06:39:05.850Z,29.70
2018-06-21T06:40:05.547Z,29.70
2018-06-21T06:41:10.383Z,29.80
2018-06-21T06:42:06.116Z,29.90
2018-06-21T06:43:07.968Z,30.00
2018-06-21T06:44:10.576Z,30.00
2018-06-21T06:45:11.080Z,30.00
2018-06-21T06:46:05.592Z,30.00
2018-06-21T06:47:07.909Z,30.10
2018-06-21T06:48:06.120Z,30.10
2018-06-21T06:49:05.453Z,30.10
2018-06-21T06:50:08.610Z,30.30
2018-06-21T06:51:06.006Z,30.20
2018-06-21T06:52:05.659Z,30.30
2018-06-21T06:53:10.374Z,30.20
2018-06-21T06:54:15.951Z,30.30
2018-06-21T06:55:08.166Z,30.30
2018-06-21T06:56:05.696Z,30.20
2018-06-21T06:57:05.583Z,30.20
2018-06-21T06:58:08.244Z,30.30
2018-06-21T06:59:05.748Z,30.20
2018-06-21T07:00:05.746Z,30.30
2018-06-21T07:01:05.854Z,30.30
2018-06-21T07:02:05.858Z,30.30
2018-06-21T07:03:10.731Z,30.30
2018-06-21T07:04:07.907Z,30.30
2018-06-21T07:05:05.555Z,30.30
2018-06-21T07:06:10.434Z,30.20
2018-06-21T07:07:06.281Z,30.20
2018-06-21T07:08:05.970Z,30.30
2018-06-21T07:09:05.606Z,30.30
2018-06-21T07:10:07.728Z,30.50
2018-06-21T07:11:10.259Z,30.50
2018-06-21T07:12:06.770Z,4.90
2018-06-21T07:13:05.479Z,30.50
2018-06-21T07:14:08.817Z,30.60
2018-06-21T07:15:05.444Z,30.60
2018-06-21T07:16:06.384Z,30.70
2018-06-21T07:17:06.127Z,30.70
2018-06-21T07:18:05.972Z,30.80
2018-06-21T07:19:08.335Z,30.90
2018-06-21T07:20:05.949Z,30.80
2018-06-21T07:21:05.713Z,30.80
2018-06-21T07:22:05.629Z,30.90
2018-06-21T07:23:08.025Z,30.90
2018-06-21T07:24:05.501Z,30.80
2018-06-21T07:25:05.400Z,30.90
2018-06-21T07:26:08.910Z,30.80
2018-06-21T07:27:08.097Z,30.70
2018-06-21T07:28:05.902Z,30.70
2018-06-21T07:29:10.783Z,30.70
2018-06-21T07:30:07.938Z,30.60
2018-06-21T07:31:05.489Z,30.60
2018-06-21T07:32:05.505Z,30.50
2018-06-21T07:33:07.696Z,30.30
2018-06-21T07:34:05.698Z,30.30
2018-06-21T07:35:10.277Z,30.10
2018-06-21T07:36:05.865Z,30.10
2018-06-21T07:37:05.845Z,29.90
2018-06-21T07:38:06.127Z,29.80
2018-06-21T07:39:06.088Z,29.70
2018-06-21T07:40:06.111Z,29.80
2018-06-21T07:41:10.871Z,29.70
2018-06-21T07:42:05.314Z,29.70
2018-06-21T07:43:05.369Z,29.70
2018-06-21T07:44:06.076Z,29.70
2018-06-21T07:45:05.725Z,29.80
2018-06-21T07:46:05.731Z,29.80
2018-06-21T07:47:05.866Z,29.90
2018-06-21T07:48:05.862Z,30.00
2018-06-21T07:49:05.914Z,30.00
2018-06-21T07:50:08.125Z,30.00
2018-06-21T07:51:05.303Z,30.00
2018-06-21T07:52:06.322Z,30.00
2018-06-21T07:53:06.200Z,29.90
2018-06-21T07:54:05.843Z,29.90
2018-06-21T07:55:08.940Z,29.80
2018-06-21T07:56:05.538Z,29.70
2018-06-21T07:57:06.133Z,29.70
2018-06-21T07:58:09.672Z,29.60
2018-06-21T07:59:07.883Z,29.60
2018-06-21T08:00:05.443Z,29.60
2018-06-21T08:01:18.098Z,29.70
2018-06-21T08:02:05.654Z,29.70
2018-06-21T08:03:05.308Z,29.70
2018-06-21T08:04:08.570Z,29.70
2018-06-21T08:05:05.712Z,29.70
2018-06-21T08:06:08.991Z,29.70
2018-06-21T08:07:08.579Z,29.60
2018-06-21T08:08:06.256Z,29.60
2018-06-21T08:09:06.066Z,29.50
2018-06-21T08:10:05.496Z,29.50
2018-06-21T08:11:05.213Z,29.40
2018-06-21T08:12:13.496Z,29.30
2018-06-21T08:13:10.679Z,29.20
2018-06-21T08:14:05.274Z,29.20
2018-06-21T08:15:05.977Z,29.20
2018-06-21T08:16:08.619Z,29.10
2018-06-21T08:17:08.405Z,29.10
2018-06-21T08:18:08.346Z,29.10
2018-06-21T08:19:05.822Z,29.00
2018-06-21T08:20:07.979Z,29.10
2018-06-21T08:21:05.425Z,29.00
2018-06-21T08:22:06.203Z,29.00
2018-06-21T08:23:05.807Z,29.00
2018-06-21T08:24:05.843Z,29.00
2018-06-21T08:25:05.519Z,29.00
2018-06-21T08:26:07.836Z,29.00
2018-06-21T08:27:05.447Z,28.90
2018-06-21T08:28:05.477Z,28.90
2018-06-21T08:29:07.892Z,28.80
2018-06-21T08:30:05.513Z,28.80
2018-06-21T08:31:05.527Z,28.80
2018-06-21T08:32:10.459Z,28.70
2018-06-21T08:33:06.221Z,28.70
2018-06-21T08:34:05.773Z,28.70
2018-06-21T08:35:05.615Z,28.70
2018-06-21T08:36:05.306Z,28.80
2018-06-21T08:37:05.291Z,28.80
2018-06-21T08:38:06.236Z,29.00
2018-06-21T08:39:08.169Z,29.00
2018-06-21T08:40:05.645Z,29.10
2018-06-21T08:41:05.468Z,29.10
2018-06-21T08:42:05.171Z,29.20
2018-06-21T08:43:08.457Z,29.20
2018-06-21T08:44:06.052Z,29.20
2018-06-21T08:45:06.064Z,29.30
2018-06-21T08:46:08.196Z,29.30
2018-06-21T08:47:11.111Z,29.20
2018-06-21T08:48:08.312Z,29.20
2018-06-21T08:49:08.376Z,29.20
2018-06-21T08:50:05.869Z,29.20
2018-06-21T08:51:05.701Z,29.20
2018-06-21T08:52:05.448Z,29.30
2018-06-21T08:53:05.198Z,29.40
2018-06-21T08:54:08.578Z,29.50
2018-06-21T08:55:06.036Z,29.50
2018-06-21T08:56:10.691Z,29.40
2018-06-21T08:57:05.606Z,29.40
2018-06-21T08:58:10.266Z,29.40
2018-06-21T08:59:07.937Z,29.30
2018-06-21T09:00:12.965Z,29.20
2018-06-21T09:01:10.751Z,29.20
2018-06-21T09:02:05.251Z,29.20
2018-06-21T09:03:06.195Z,29.20
2018-06-21T09:04:05.326Z,29.10
2018-06-21T09:05:06.553Z,29.10
2018-06-21T09:06:05.212Z,29.10
2018-06-21T09:07:06.452Z,29.10
2018-06-21T09:08:08.675Z,29.00
2018-06-21T09:09:05.242Z,29.00
2018-06-21T09:10:05.255Z,29.00
2018-06-21T09:11:07.855Z,28.80
2018-06-21T09:12:05.312Z,28.80
2018-06-21T09:13:05.333Z,28.80
2018-06-21T09:14:08.019Z,28.70
2018-06-21T09:15:05.744Z,28.70
2018-06-21T09:16:05.918Z,28.70
2018-06-21T09:17:05.753Z,28.70
2018-06-21T09:18:11.181Z,28.60
2018-06-21T09:19:08.376Z,28.70
2018-06-21T09:20:05.864Z,28.70
2018-06-21T09:21:05.620Z,28.70
2018-06-21T09:22:10.326Z,28.80
2018-06-21T09:23:05.849Z,28.70
2018-06-21T09:24:05.945Z,28.70
2018-06-21T09:25:05.617Z,28.80
2018-06-21T09:26:10.259Z,28.80
2018-06-21T09:27:05.631Z,28.70
2018-06-21T09:28:05.725Z,28.80
2018-06-21T09:29:08.244Z,28.70
2018-06-21T09:30:05.947Z,28.70
2018-06-21T09:31:08.122Z,28.70
2018-06-21T09:32:06.279Z,28.70
2018-06-21T09:33:08.584Z,28.70
2018-06-21T09:34:08.244Z,28.70
2018-06-21T09:35:10.916Z,28.70
2018-06-21T09:36:05.699Z,28.70
2018-06-21T09:37:05.849Z,28.70
2018-06-21T09:38:05.472Z,28.70
2018-06-21T09:39:08.709Z,28.70
2018-06-21T09:40:05.238Z,28.70
2018-06-21T09:41:08.564Z,28.80
2018-06-21T09:42:06.142Z,28.80
2018-06-21T09:43:05.818Z,28.80
2018-06-21T09:44:08.235Z,29.00
2018-06-21T09:45:05.667Z,28.90
2018-06-21T09:46:05.644Z,29.00
2018-06-21T09:47:05.726Z,29.00
2018-06-21T09:48:10.726Z,29.10
2018-06-21T09:49:05.202Z,29.20
2018-06-21T09:50:10.381Z,29.10
2018-06-21T09:51:05.657Z,29.10
2018-06-21T09:52:07.711Z,29.10
2018-06-21T09:53:05.461Z,29.10
2018-06-21T09:54:06.219Z,29.10
2018-06-21T09:55:06.033Z,29.10
2018-06-21T09:56:06.115Z,29.10
2018-06-21T09:57:06.009Z,29.10
2018-06-21T09:58:05.745Z,29.10
2018-06-21T09:59:05.752Z,29.10
2018-06-21T10:00:05.200Z,29.10
2018-06-21T10:01:05.299Z,29.00
2018-06-21T10:02:08.622Z,29.10
2018-06-21T10:03:08.345Z,29.10
2018-06-21T10:04:08.450Z,29.10
2018-06-21T10:05:06.052Z,29.10
2018-06-21T10:06:08.072Z,29.20
2018-06-21T10:07:05.656Z,29.20
2018-06-21T10:08:05.958Z,29.20
2018-06-21T10:09:10.651Z,29.20
2018-06-21T10:10:05.473Z,29.30
2018-06-21T10:11:10.440Z,29.30
2018-06-21T10:12:05.931Z,29.30
2018-06-21T10:13:06.114Z,29.30
2018-06-21T10:14:09.016Z,29.20
2018-06-21T10:15:07.169Z,29.30
2018-06-21T10:16:05.604Z,29.20
2018-06-21T10:17:06.063Z,29.20
2018-06-21T10:18:06.187Z,29.10
2018-06-21T10:19:05.698Z,29.10
2018-06-21T10:20:05.361Z,29.10
2018-06-21T10:21:08.644Z,29.00
2018-06-21T10:22:08.440Z,29.00
2018-06-21T10:23:08.415Z,28.90
2018-06-21T10:24:06.067Z,28.90
2018-06-21T10:25:08.572Z,28.90
2018-06-21T10:26:06.180Z,28.90
2018-06-21T10:27:06.291Z,28.80
2018-06-21T10:28:06.042Z,28.80
2018-06-21T10:29:05.717Z,28.70
2018-06-21T10:30:08.191Z,28.70
2018-06-21T10:31:08.226Z,28.60
2018-06-21T10:32:08.254Z,28.60
2018-06-21T10:33:10.974Z,28.50
2018-06-21T10:34:05.928Z,28.40
2018-06-21T10:35:05.866Z,28.40
2018-06-21T10:36:10.726Z,28.40
2018-06-21T10:37:07.866Z,28.40
2018-06-21T10:38:10.579Z,28.40
2018-06-21T10:39:11.274Z,28.30
2018-06-21T10:40:05.831Z,28.30
2018-06-21T10:41:08.257Z,28.20
2018-06-21T10:42:05.871Z,28.10
2018-06-21T10:43:05.535Z,28.10
2018-06-21T10:44:13.303Z,28.10
2018-06-21T10:45:05.190Z,28.20
2018-06-21T10:46:05.860Z,28.20
2018-06-21T10:47:05.624Z,28.30
2018-06-21T10:48:05.542Z,28.40
2018-06-21T10:49:10.483Z,28.40
2018-06-21T10:50:07.693Z,28.60
2018-06-21T10:51:07.906Z,28.70
2018-06-21T10:52:08.012Z,28.80
2018-06-21T10:53:08.052Z,28.80
2018-06-21T10:54:08.555Z,28.80
2018-06-21T10:55:08.565Z,28.80
2018-06-21T10:56:11.072Z,28.80
2018-06-21T10:57:05.576Z,28.90
2018-06-21T10:58:07.884Z,28.90
2018-06-21T10:59:05.615Z,28.80
2018-06-21T11:00:05.678Z,28.90
2018-06-21T11:01:05.155Z,28.90
2018-06-21T11:02:07.829Z,28.80
2018-06-21T11:03:05.313Z,28.90
2018-06-21T11:04:06.444Z,28.90
2018-06-21T11:05:08.715Z,29.00
2018-06-21T11:06:10.182Z,28.90
2018-06-21T11:07:05.732Z,28.90
2018-06-21T11:08:08.329Z,28.80
2018-06-21T11:09:08.412Z,28.70
2018-06-21T11:10:06.069Z,28.70
2018-06-21T11:11:08.607Z,28.70
2018-06-21T11:12:06.097Z,28.70
2018-06-21T11:13:10.709Z,28.60
2018-06-21T11:14:05.431Z,28.60
2018-06-21T11:15:05.434Z,28.60
2018-06-21T11:16:05.371Z,28.60
2018-06-21T11:17:05.502Z,28.60
2018-06-21T11:18:06.163Z,28.70
2018-06-21T11:19:08.486Z,28.80
2018-06-21T11:20:06.093Z,28.70
2018-06-21T11:21:10.279Z,28.90
2018-06-21T11:22:08.403Z,29.00
2018-06-21T11:23:10.954Z,29.00
2018-06-21T11:24:05.357Z,29.00
2018-06-21T11:25:08.093Z,28.90
2018-06-21T11:26:05.563Z,29.00
2018-06-21T11:27:07.864Z,28.80
2018-06-21T11:28:05.464Z,28.80
2018-06-21T11:29:05.227Z,28.70
2018-06-21T11:30:06.173Z,28.60
2018-06-21T11:31:05.581Z,28.60
2018-06-21T11:32:05.284Z,28.40
2018-06-21T11:33:06.007Z,28.40
2018-06-21T11:34:05.601Z,28.20
2018-06-21T11:35:10.389Z,27.90
2018-06-21T11:36:05.294Z,28.00
2018-06-21T11:37:05.870Z,27.90
2018-06-21T11:38:10.468Z,27.60
2018-06-21T11:39:08.774Z,27.60
2018-06-21T11:40:05.272Z,27.60
2018-06-21T11:41:05.265Z,27.60
2018-06-21T11:42:08.552Z,27.70
2018-06-21T11:43:10.422Z,27.70
2018-06-21T11:44:10.991Z,27.80
2018-06-21T11:45:10.648Z,27.90
2018-06-21T11:46:08.726Z,27.90
2018-06-21T11:47:05.190Z,27.90
2018-06-21T11:48:07.782Z,28.10
2018-06-21T11:49:06.457Z,28.10
2018-06-21T11:50:08.581Z,28.10
2018-06-21T11:51:06.238Z,28.10
2018-06-21T11:52:05.873Z,28.10
2018-06-21T11:53:08.187Z,28.10
2018-06-21T11:54:05.698Z,28.00
2018-06-21T11:55:06.455Z,27.80
2018-06-21T11:56:06.253Z,27.60
2018-06-21T11:57:05.891Z,27.30
2018-06-21T11:58:10.642Z,26.50
2018-06-21T11:59:08.667Z,26.30
2018-06-21T12:00:05.183Z,26.20
2018-06-21T12:01:06.145Z,26.00
2018-06-21T12:02:10.818Z,25.70
2018-06-21T12:03:05.363Z,25.40
2018-06-21T12:04:08.693Z,25.10
2018-06-21T12:05:05.280Z,25.00
2018-06-21T12:06:11.177Z,24.70
2018-06-21T12:07:05.620Z,24.70
2018-06-21T12:08:05.407Z,24.60
2018-06-21T12:09:07.728Z,24.40
2018-06-21T12:10:05.213Z,24.40
2018-06-21T12:11:05.849Z,24.30
2018-06-21T12:12:05.488Z,24.20
2018-06-21T12:13:06.111Z,24.10
2018-06-21T12:14:05.750Z,24.00
2018-06-21T12:15:10.545Z,23.90
2018-06-21T12:16:08.613Z,23.90
2018-06-21T12:17:08.742Z,23.70
2018-06-21T12:18:05.296Z,23.70
2018-06-21T12:19:05.312Z,23.70
2018-06-21T12:20:06.447Z,23.60
2018-06-21T12:21:06.019Z,23.60
2018-06-21T12:22:05.802Z,23.50
2018-06-21T12:23:10.552Z,23.40
2018-06-21T12:24:08.580Z,23.20
2018-06-21T12:25:11.130Z,23.10
2018-06-21T12:26:08.364Z,23.00
2018-06-21T12:27:08.566Z,23.00
2018-06-21T12:28:11.121Z,23.00
2018-06-21T12:29:06.853Z,22.90
2018-06-21T12:30:05.578Z,22.90
2018-06-21T12:31:05.958Z,22.90
2018-06-21T12:32:08.255Z,22.80
2018-06-21T12:33:05.979Z,22.70
2018-06-21T12:34:10.781Z,22.70
2018-06-21T12:35:07.832Z,22.70
2018-06-21T12:36:05.367Z,22.60
2018-06-21T12:37:07.961Z,22.60
2018-06-21T12:38:05.397Z,22.60
2018-06-21T12:39:10.348Z,22.50
2018-06-21T12:40:05.526Z,22.50
2018-06-21T12:41:05.165Z,22.50
2018-06-21T12:42:07.136Z,22.50
2018-06-21T12:43:06.082Z,22.40
2018-06-21T12:44:05.865Z,22.40
2018-06-21T12:45:08.204Z,22.30
2018-06-21T12:46:08.161Z,22.20
2018-06-21T12:47:10.896Z,22.30
2018-06-21T12:48:05.432Z,22.30
2018-06-21T12:49:10.399Z,22.20
2018-06-21T12:50:05.993Z,22.20
2018-06-21T12:51:07.022Z,22.20
2018-06-21T12:52:10.739Z,22.10